Time;durP1;ratioP1;P1;durP2;ratioP2;P2;SDS_P1;SDS_P2;PMS_P1;PMS_P2;Temp;Humidity;BMP_temperature;BMP_pressure;BME280_temperature;BME280_humidity;BME280_pressure;Samples;Min_cycle;Max_cycle;Signal;HPM_P1;HPM_P2
2023/01/08 00:01:03;;;;;;;10.80;8.77;;;;;;;5.26;100.00;96191.97;4954904;29;20193;-76
2023/01/08 00:03:29;;;;;;;9.57;8.53;;;;;;;5.32;100.00;96195.53;4953608;29;20205;-76
2023/01/08 00:05:54;;;;;;;9.73;8.83;;;;;;;5.29;100.00;96188.16;4953086;29;20201;-76
2023/01/08 00:08:19;;;;;;;9.73;8.83;;;;;;;5.19;100.00;96187.78;4954892;29;20193;-76
2023/01/08 00:10:52;;;;;;;11.23;9.37;;;;;;;5.15;100.00;96176.22;4954874;29;20195;-76
2023/01/08 00:13:17;;;;;;;10.13;9.23;;;;;;;5.14;100.00;96161.66;4954747;29;20686;-76
2023/01/08 00:15:43;;;;;;;10.10;9.20;;;;;;;5.13;100.00;96160.84;4954412;29;20189;-76
2023/01/08 00:18:08;;;;;;;10.90;9.90;;;;;;;5.17;100.00;96169.03;4954447;29;20259;-76
2023/01/08 00:20:33;;;;;;;9.63;8.73;;;;;;;5.12;100.00;96172.25;4959473;28;20189;-76
2023/01/08 00:22:59;;;;;;;10.83;9.73;;;;;;;5.10;100.00;96163.06;4960908;28;20479;-76
2023/01/08 00:25:24;;;;;;;10.57;9.33;;;;;;;5.10;100.00;96171.66;4961136;28;20239;-76
2023/01/08 00:27:49;;;;;;;11.70;9.03;;;;;;;5.18;100.00;96174.03;4960605;28;20200;-76
2023/01/08 00:30:15;;;;;;;10.20;9.20;;;;;;;5.25;100.00;96171.38;4960916;28;20196;-77
2023/01/08 00:32:43;;;;;;;9.97;8.97;;;;;;;5.28;100.00;96169.19;4954479;28;20212;-77
2023/01/08 00:35:09;;;;;;;11.20;7.97;;;;;;;5.21;100.00;96162.41;4959637;29;20192;-76
2023/01/08 00:37:34;;;;;;;10.47;9.47;;;;;;;5.19;100.00;96160.03;4960673;29;20185;-77
2023/01/08 00:39:59;;;;;;;10.37;8.87;;;;;;;5.16;100.00;96142.28;4959277;28;20185;-76
2023/01/08 00:42:24;;;;;;;10.73;9.73;;;;;;;5.15;100.00;96140.66;4943489;29;20185;-76
2023/01/08 00:44:50;;;;;;;10.43;9.43;;;;;;;5.15;100.00;96130.28;4960743;29;20196;-76
2023/01/08 00:47:15;;;;;;;9.87;8.87;;;;;;;5.22;100.00;96125.84;4960385;29;20205;-77
2023/01/08 00:49:41;;;;;;;10.53;9.63;;;;;;;5.20;100.00;96114.06;4960100;29;20743;-76
2023/01/08 00:52:06;;;;;;;10.07;9.07;;;;;;;5.25;100.00;96111.63;4943499;29;20287;-76
2023/01/08 00:54:31;;;;;;;10.20;9.20;;;;;;;5.30;100.00;96114.41;4961027;28;20197;-76
2023/01/08 00:56:57;;;;;;;9.93;9.03;;;;;;;5.30;100.00;96122.19;4980270;28;20604;-76
2023/01/08 00:59:22;;;;;;;9.03;8.13;;;;;;;5.29;100.00;96120.63;4980356;28;20184;-76
2023/01/08 01:01:47;;;;;;;10.70;8.90;;;;;;;5.29;100.00;96116.22;4979530;28;20196;-77
2023/01/08 01:04:16;;;;;;;10.53;9.53;;;;;;;5.37;100.00;96118.56;4979168;28;20192;-78
2023/01/08 01:06:41;;;;;;;10.63;9.63;;;;;;;5.24;100.00;96120.44;4978459;28;20268;-76
2023/01/08 01:09:07;;;;;;;9.57;8.67;;;;;;;5.23;100.00;96108.47;4980013;28;20280;-76
2023/01/08 01:11:33;;;;;;;10.27;9.27;;;;;;;5.24;100.00;96103.03;4980111;28;20295;-76
2023/01/08 01:13:58;;;;;;;9.67;8.77;;;;;;;5.19;100.00;96096.88;4980014;28;20231;-77
2023/01/08 01:16:24;;;;;;;12.93;11.83;;;;;;;5.21;100.00;96095.69;4979868;28;20192;-77
2023/01/08 01:18:51;;;;;;;13.03;11.93;;;;;;;5.32;100.00;96102.78;4980050;28;20184;-76
2023/01/08 01:21:22;;;;;;;14.50;13.40;;;;;;;5.26;100.00;96092.44;4980112;28;20216;-77
2023/01/08 01:23:47;;;;;;;16.33;15.03;;;;;;;5.32;100.00;96105.41;4979962;28;20184;-77
2023/01/08 01:26:18;;;;;;;17.20;16.00;;;;;;;5.30;100.00;96111.78;4961866;28;20185;-76
2023/01/08 01:28:46;;;;;;;13.27;12.33;;;;;;;5.32;100.00;96108.00;4979482;28;20214;-76
2023/01/08 01:31:12;;;;;;;12.00;11.00;;;;;;;5.37;100.00;96109.97;4977879;28;20232;-76
2023/01/08 01:33:38;;;;;;;10.30;9.30;;;;;;;5.38;100.00;96104.56;4976827;28;20268;-77
2023/01/08 01:36:05;;;;;;;10.40;9.50;;;;;;;5.29;100.00;96092.84;4976885;28;20698;-77
2023/01/08 01:38:30;;;;;;;10.17;9.20;;;;;;;5.28;100.00;96108.63;4975796;28;20184;-76
2023/01/08 01:40:55;;;;;;;8.90;8.00;;;;;;;5.29;100.00;96108.44;4976609;28;20235;-77
2023/01/08 01:43:42;;;;;;;9.17;8.37;;;;;;;5.31;100.00;96114.19;4976711;28;20187;-77
2023/01/08 01:46:38;;;;;;;10.10;9.10;;;;;;;5.40;100.00;96112.16;4976420;28;20235;-76
2023/01/08 01:49:16;;;;;;;9.70;8.87;;;;;;;5.42;100.00;96112.72;4968257;28;20559;-77
2023/01/08 01:51:47;;;;;;;9.67;8.77;;;;;;;5.40;100.00;96125.94;4976078;28;20242;-76
2023/01/08 01:54:14;;;;;;;11.40;9.43;;;;;;;5.42;100.00;96117.91;4976088;28;20176;-76
2023/01/08 01:56:41;;;;;;;11.00;10.00;;;;;;;5.43;100.00;96114.31;4958475;28;20235;-76
2023/01/08 01:59:06;;;;;;;11.83;10.73;;;;;;;5.52;100.00;96118.25;4975957;28;20324;-76
2023/01/08 02:01:33;;;;;;;10.00;9.10;;;;;;;5.58;100.00;96117.41;4976168;28;20205;-76
2023/01/08 02:03:58;;;;;;;10.30;9.40;;;;;;;5.60;100.00;96119.78;4973598;28;20659;-76
2023/01/08 02:06:29;;;;;;;11.77;8.93;;;;;;;5.55;100.00;96115.22;4975739;28;20188;-76
2023/01/08 02:08:57;;;;;;;8.60;7.90;;;;;;;5.64;100.00;96113.16;4976179;28;20197;-77
2023/01/08 02:11:33;;;;;;;10.47;9.57;;;;;;;5.59;100.00;96113.00;4976205;28;20180;-76
2023/01/08 02:14:10;;;;;;;13.83;12.73;;;;;;;5.63;100.00;96106.38;4975576;28;20243;-76
2023/01/08 02:16:52;;;;;;;13.40;12.40;;;;;;;5.66;100.00;96103.34;4975837;28;20208;-76
2023/01/08 02:19:48;;;;;;;10.43;9.53;;;;;;;5.72;100.00;96102.50;4976189;28;20179;-76
2023/01/08 02:22:36;;;;;;;9.83;8.83;;;;;;;5.72;100.00;96099.91;4975930;28;20313;-76
2023/01/08 02:25:16;;;;;;;9.10;7.80;;;;;;;5.77;100.00;96093.06;4956885;29;20186;-76
2023/01/08 02:27:47;;;;;;;9.33;8.53;;;;;;;5.76;100.00;96081.06;4946935;28;20571;-76
2023/01/08 02:30:13;;;;;;;10.43;9.53;;;;;;;5.80;100.00;96081.41;4975790;28;20188;-77
2023/01/08 02:32:41;;;;;;;8.63;7.87;;;;;;;5.82;100.00;96077.63;4975112;28;20746;-76
2023/01/08 02:35:08;;;;;;;8.43;7.67;;;;;;;5.86;100.00;96075.38;4957901;28;20197;-76
2023/01/08 02:37:35;;;;;;;7.87;7.07;;;;;;;5.98;100.00;96071.09;4975140;28;20707;-76
2023/01/08 02:40:29;;;;;;;7.70;7.10;;;;;;;5.99;100.00;96051.88;4975344;28;20184;-76
2023/01/08 02:43:07;;;;;;;7.97;7.27;;;;;;;6.09;100.00;96046.97;4960811;28;20272;-76
2023/01/08 02:45:49;;;;;;;7.67;7.03;;;;;;;6.16;100.00;96046.91;4975580;28;20675;-76
2023/01/08 02:48:38;;;;;;;8.40;7.70;;;;;;;6.19;100.00;96041.25;4950616;28;20219;-76
2023/01/08 02:51:15;;;;;;;8.07;7.27;;;;;;;6.26;100.00;96052.38;4975198;28;20224;-76
2023/01/08 02:53:47;;;;;;;7.70;7.10;;;;;;;6.23;100.00;96040.63;4975295;28;20193;-76
2023/01/08 02:56:52;;;;;;;8.30;7.60;;;;;;;5.95;100.00;96037.72;4975311;28;20232;-76
2023/01/08 02:59:19;;;;;;;8.67;7.87;;;;;;;5.84;100.00;96028.81;4871881;29;20225;-76
2023/01/08 03:01:45;;;;;;;9.77;8.77;;;;;;;5.67;100.00;96022.56;4957618;28;20221;-76
2023/01/08 03:04:17;;;;;;;9.23;8.43;;;;;;;5.73;100.00;96028.72;4970949;28;20236;-76
2023/01/08 03:06:43;;;;;;;10.73;8.47;;;;;;;5.72;100.00;96029.72;4974771;28;20214;-77
2023/01/08 03:09:09;;;;;;;9.67;8.77;;;;;;;5.51;100.00;96020.50;4974955;28;20268;-76
2023/01/08 03:11:49;;;;;;;10.00;9.10;;;;;;;5.60;100.00;96013.22;4975041;28;20200;-77
2023/01/08 03:14:31;;;;;;;8.77;7.97;;;;;;;5.49;100.00;96014.72;4960517;28;20519;-77
2023/01/08 03:17:21;;;;;;;8.97;8.17;;;;;;;5.53;100.00;96007.28;4974329;28;20180;-77
2023/01/08 03:20:03;;;;;;;9.07;8.27;;;;;;;5.69;100.00;96007.53;4975092;28;20183;-77
2023/01/08 03:22:30;;;;;;;8.53;7.77;;;;;;;5.83;100.00;96011.59;4974520;28;20539;-76
2023/01/08 03:24:58;;;;;;;8.20;7.50;;;;;;;5.93;100.00;96011.13;4974779;28;20239;-76
2023/01/08 03:27:31;;;;;;;8.43;7.73;;;;;;;6.00;100.00;96008.47;4973825;28;20216;-76
2023/01/08 03:29:58;;;;;;;8.13;7.43;;;;;;;6.09;100.00;95997.53;4974695;28;20192;-76
2023/01/08 03:32:26;;;;;;;8.60;7.90;;;;;;;6.07;100.00;95993.59;4974484;28;20206;-77
2023/01/08 03:34:55;;;;;;;8.97;8.00;;;;;;;6.17;100.00;95986.84;4974366;28;20569;-78
2023/01/08 03:37:28;;;;;;;8.23;7.43;;;;;;;6.21;100.00;95988.00;4974191;28;20656;-76
2023/01/08 03:40:02;;;;;;;7.77;7.07;;;;;;;6.14;100.00;95986.47;4974130;28;20181;-77
2023/01/08 03:42:29;;;;;;;9.03;8.13;;;;;;;6.11;100.00;95990.31;4972378;28;20268;-76
2023/01/08 03:44:55;;;;;;;8.20;7.40;;;;;;;6.03;100.00;95984.59;4973991;28;20185;-77
2023/01/08 03:47:22;;;;;;;8.43;7.57;;;;;;;6.15;100.00;95980.25;4974303;28;20731;-77
2023/01/08 03:49:50;;;;;;;8.33;7.53;;;;;;;6.10;100.00;95982.72;4974100;28;20180;-77
2023/01/08 03:52:28;;;;;;;8.30;7.60;;;;;;;6.05;100.00;95985.19;4957032;28;20208;-77
2023/01/08 03:54:53;;;;;;;8.17;7.20;;;;;;;6.17;100.00;95983.47;4973655;28;20754;-77
2023/01/08 03:57:19;;;;;;;8.60;7.77;;;;;;;6.24;100.00;95977.13;4973071;28;20251;-77
2023/01/08 03:59:45;;;;;;;8.10;7.30;;;;;;;6.30;100.00;95978.06;4974217;28;20533;-77
2023/01/08 04:02:11;;;;;;;8.67;7.73;;;;;;;6.24;100.00;95977.13;4973663;28;20196;-77
2023/01/08 04:04:36;;;;;;;8.57;7.77;;;;;;;6.20;100.00;95981.19;4971305;28;20251;-77
2023/01/08 04:07:02;;;;;;;7.70;7.00;;;;;;;6.26;100.00;95969.13;4973885;28;20719;-77
2023/01/08 04:09:27;;;;;;;8.90;8.10;;;;;;;6.20;100.00;95973.41;4956865;28;20189;-77
2023/01/08 04:11:52;;;;;;;8.33;7.60;;;;;;;6.23;100.00;95967.78;4973771;28;20214;-77
2023/01/08 04:14:18;;;;;;;8.47;7.77;;;;;;;6.13;100.00;95974.50;4973870;28;20652;-76
2023/01/08 04:16:44;;;;;;;8.77;8.07;;;;;;;6.16;100.00;95969.66;4973980;28;20192;-77
2023/01/08 04:19:13;;;;;;;8.70;7.90;;;;;;;6.14;100.00;95971.66;4974338;28;20189;-77
2023/01/08 04:21:38;;;;;;;8.37;7.63;;;;;;;6.02;100.00;95970.81;4974214;28;20554;-76
2023/01/08 04:24:05;;;;;;;8.60;7.80;;;;;;;5.93;100.00;95972.13;4973844;28;20188;-77
2023/01/08 04:26:30;;;;;;;8.23;7.50;;;;;;;6.05;100.00;95975.59;4973630;28;20199;-77
2023/01/08 04:28:56;;;;;;;8.03;7.27;;;;;;;6.00;100.00;95974.66;4974136;28;20192;-77
2023/01/08 04:31:21;;;;;;;8.53;7.73;;;;;;;6.02;100.00;95973.41;4973840;28;20196;-77
2023/01/08 04:33:46;;;;;;;8.83;8.13;;;;;;;6.07;100.00;95978.78;4974448;28;20267;-76
2023/01/08 04:36:12;;;;;;;8.40;7.70;;;;;;;6.06;100.00;95981.59;4973601;28;20248;-77
2023/01/08 04:38:37;;;;;;;8.00;7.00;;;;;;;6.10;100.00;95975.72;4973994;28;20184;-76
2023/01/08 04:41:03;;;;;;;7.77;7.17;;;;;;;6.11;100.00;95972.13;4973437;28;20189;-76
2023/01/08 04:43:29;;;;;;;8.17;7.47;;;;;;;6.09;100.00;95968.94;4973022;28;20802;-77
2023/01/08 04:46:06;;;;;;;8.43;7.63;;;;;;;6.12;100.00;95984.13;4973457;28;20197;-76
2023/01/08 04:48:31;;;;;;;8.37;7.57;;;;;;;6.07;100.00;95986.56;4974017;28;20232;-76
2023/01/08 04:50:58;;;;;;;8.20;7.40;;;;;;;6.23;100.00;95985.19;4973688;28;20702;-77
2023/01/08 04:53:24;;;;;;;7.10;6.50;;;;;;;6.25;100.00;95985.75;4973146;28;20207;-77
2023/01/08 04:55:50;;;;;;;7.93;7.33;;;;;;;6.40;100.00;95988.78;4961791;28;20228;-76
2023/01/08 04:58:15;;;;;;;9.00;8.17;;;;;;;6.34;100.00;95984.44;4954179;29;20189;-77
2023/01/08 05:00:41;;;;;;;9.97;9.27;;;;;;;6.47;100.00;95983.47;4954291;29;20648;-77
2023/01/08 05:03:06;;;;;;;8.90;8.20;;;;;;;6.59;100.00;95986.91;4952080;29;20586;-76
2023/01/08 05:05:33;;;;;;;8.80;8.10;;;;;;;6.79;100.00;95994.47;4954537;28;20220;-77
2023/01/08 05:07:58;;;;;;;7.80;7.20;;;;;;;6.88;100.00;95993.13;4957603;29;20181;-76
2023/01/08 05:10:24;;;;;;;7.33;6.83;;;;;;;7.05;100.00;95991.47;4957944;29;20185;-77
2023/01/08 05:12:49;;;;;;;6.00;5.40;;;;;;;7.16;100.00;95998.50;4957282;29;20205;-77
2023/01/08 05:15:14;;;;;;;5.23;4.83;;;;;;;7.23;100.00;95995.81;4956691;29;20181;-77
2023/01/08 05:17:40;;;;;;;4.50;4.20;;;;;;;7.26;100.00;96003.97;4956932;29;20745;-77
2023/01/08 05:20:07;;;;;;;4.27;4.03;;;;;;;7.32;100.00;95995.25;4940279;29;20185;-76
2023/01/08 05:22:32;;;;;;;4.70;4.13;;;;;;;7.30;100.00;95992.06;4957533;29;20559;-77
2023/01/08 05:24:57;;;;;;;4.57;4.27;;;;;;;7.33;100.00;95989.03;4956436;28;20197;-77
2023/01/08 05:27:23;;;;;;;4.93;4.53;;;;;;;7.36;100.00;95985.16;4957422;29;20205;-77
2023/01/08 05:29:49;;;;;;;4.60;4.30;;;;;;;7.34;100.00;95977.59;4956957;29;20189;-76
2023/01/08 05:32:17;;;;;;;4.07;3.87;;;;;;;7.42;100.00;95973.81;4956987;29;20201;-77
2023/01/08 05:34:43;;;;;;;5.80;5.30;;;;;;;7.39;100.00;95971.69;4956872;29;20228;-77
2023/01/08 05:37:09;;;;;;;4.40;4.10;;;;;;;7.45;100.00;95987.22;4957028;29;20189;-77
2023/01/08 05:39:36;;;;;;;4.80;4.50;;;;;;;7.42;100.00;95977.22;4939223;29;20186;-77
2023/01/08 05:42:02;;;;;;;4.10;3.90;;;;;;;7.45;100.00;95976.00;4957089;29;20250;-77
2023/01/08 05:44:27;;;;;;;5.27;4.90;;;;;;;7.43;100.00;95989.25;4957001;29;20201;-77
2023/01/08 05:46:53;;;;;;;4.20;4.00;;;;;;;7.46;100.00;95982.81;4956890;29;20192;-77
2023/01/08 05:49:20;;;;;;;4.30;4.00;;;;;;;7.39;100.00;95987.31;4955460;29;20195;-76
2023/01/08 05:51:46;;;;;;;6.53;6.13;;;;;;;7.41;100.00;95986.06;4957154;29;20209;-77
2023/01/08 05:54:11;;;;;;;11.30;10.63;;;;;;;7.41;100.00;95988.66;4957212;29;20550;-77
2023/01/08 05:56:37;;;;;;;6.07;5.77;;;;;;;7.35;100.00;95988.81;4956228;28;20228;-77
2023/01/08 05:59:02;;;;;;;5.30;5.00;;;;;;;7.39;100.00;95984.72;4956592;29;20591;-77
2023/01/08 06:01:27;;;;;;;4.67;4.37;;;;;;;7.31;100.00;95987.66;4955908;29;20189;-77
2023/01/08 06:03:55;;;;;;;5.03;4.70;;;;;;;7.29;100.00;95980.06;4954255;29;20189;-77
2023/01/08 06:06:21;;;;;;;4.40;4.00;;;;;;;7.32;100.00;95984.81;4956309;29;20206;-77
2023/01/08 06:08:46;;;;;;;5.27;4.67;;;;;;;7.28;100.00;95991.50;4956642;29;20672;-77
2023/01/08 06:11:12;;;;;;;4.83;4.33;;;;;;;7.22;100.00;95989.00;4956547;29;20190;-77
2023/01/08 06:13:40;;;;;;;5.03;4.73;;;;;;;7.13;100.00;95988.56;4956768;29;20725;-78
2023/01/08 06:16:06;;;;;;;6.00;5.70;;;;;;;7.10;100.00;95976.75;4955995;29;20603;-77
2023/01/08 06:18:31;;;;;;;6.70;6.30;;;;;;;7.05;100.00;95976.63;4955960;28;20329;-77
2023/01/08 06:20:57;;;;;;;8.10;7.67;;;;;;;7.06;100.00;95965.19;4938926;29;20600;-77
2023/01/08 06:23:22;;;;;;;8.13;7.70;;;;;;;7.02;100.00;95956.22;4939626;29;20200;-77
2023/01/08 06:25:53;;;;;;;6.80;6.33;;;;;;;7.03;100.00;95960.41;4955631;28;20197;-77
2023/01/08 06:28:18;;;;;;;5.33;5.03;;;;;;;7.01;100.00;95956.47;4956428;29;20486;-78
2023/01/08 06:30:44;;;;;;;5.63;5.23;;;;;;;7.00;100.00;95955.69;4956333;29;20268;-78
2023/01/08 06:33:09;;;;;;;5.57;5.27;;;;;;;6.93;100.00;95948.97;4956570;29;20593;-78
2023/01/08 06:35:34;;;;;;;6.30;5.77;;;;;;;6.97;100.00;95948.28;4956324;29;20588;-78
2023/01/08 06:38:00;;;;;;;5.53;5.23;;;;;;;7.04;100.00;95943.78;4956276;29;20248;-77
2023/01/08 06:40:25;;;;;;;6.07;5.77;;;;;;;7.04;100.00;95961.22;4956217;29;20241;-77
2023/01/08 06:42:50;;;;;;;6.77;6.30;;;;;;;6.97;100.00;95960.50;4955864;29;20218;-77
2023/01/08 06:45:16;;;;;;;5.53;5.23;;;;;;;6.95;100.00;95957.38;4938667;29;20181;-78
2023/01/08 06:47:41;;;;;;;5.90;5.50;;;;;;;6.97;100.00;95956.09;4955875;29;20236;-77
2023/01/08 06:50:07;;;;;;;5.50;5.20;;;;;;;6.95;100.00;95954.75;4955968;29;20290;-78
2023/01/08 06:52:32;;;;;;;6.60;6.27;;;;;;;6.99;100.00;95951.47;4956118;29;20268;-77
2023/01/08 06:54:58;;;;;;;6.33;5.93;;;;;;;7.01;100.00;95946.84;4955681;28;20592;-77
2023/01/08 06:57:23;;;;;;;7.40;7.00;;;;;;;6.98;100.00;95952.47;4955796;29;20185;-77
2023/01/08 06:59:48;;;;;;;6.37;6.07;;;;;;;7.03;100.00;95955.22;4955266;29;20640;-78
2023/01/08 07:02:15;;;;;;;6.43;6.13;;;;;;;6.94;100.00;95951.34;4953836;29;20580;-77
2023/01/08 07:04:41;;;;;;;5.30;4.97;;;;;;;6.94;100.00;95955.78;4955128;29;20209;-78
2023/01/08 07:07:07;;;;;;;7.10;6.70;;;;;;;6.99;100.00;95951.47;4955380;29;20679;-77
2023/01/08 07:09:33;;;;;;;7.40;7.00;;;;;;;7.01;100.00;95952.06;4955809;29;20189;-77
2023/01/08 07:11:59;;;;;;;8.47;7.90;;;;;;;7.02;100.00;95945.81;4955139;29;20209;-78
2023/01/08 07:14:24;;;;;;;9.27;8.77;;;;;;;6.99;100.00;95942.88;4937620;29;20177;-77
2023/01/08 07:16:50;;;;;;;11.60;11.00;;;;;;;7.02;100.00;95937.22;4955277;29;20625;-77
2023/01/08 07:19:15;;;;;;;10.30;9.80;;;;;;;6.94;100.00;95940.13;4955175;29;20612;-77
2023/01/08 07:21:40;;;;;;;8.07;7.67;;;;;;;6.95;100.00;95928.72;4955043;29;20244;-79
2023/01/08 07:24:06;;;;;;;7.87;7.47;;;;;;;6.95;100.00;95952.94;4955109;29;20192;-77
2023/01/08 07:26:32;;;;;;;14.60;13.90;;;;;;;6.96;100.00;95959.75;4954251;28;20189;-77
2023/01/08 07:28:58;;;;;;;24.93;23.53;;;;;;;6.98;100.00;95962.09;4954904;28;20193;-76
2023/01/08 07:31:23;;;;;;;9.80;9.30;;;;;;;7.05;100.00;95961.00;4955010;29;20210;-76
2023/01/08 07:33:49;;;;;;;9.07;8.67;;;;;;;7.00;100.00;95960.09;4937630;29;20692;-77
2023/01/08 07:36:15;;;;;;;9.63;9.13;;;;;;;7.04;100.00;95969.81;4955407;29;20190;-77
2023/01/08 07:38:41;;;;;;;9.17;8.67;;;;;;;7.01;100.00;95969.50;4955231;29;20205;-77
2023/01/08 07:41:07;;;;;;;7.33;6.83;;;;;;;7.00;100.00;95968.69;4953414;29;20640;-77
2023/01/08 07:43:34;;;;;;;6.00;5.70;;;;;;;7.03;100.00;95972.66;4937244;29;20240;-76
2023/01/08 07:46:01;;;;;;;6.23;5.83;;;;;;;6.90;100.00;95967.66;4954498;29;20185;-77
2023/01/08 07:48:26;;;;;;;5.90;5.43;;;;;;;6.83;100.00;95966.94;4955199;29;20178;-76
2023/01/08 07:50:52;;;;;;;6.17;5.77;;;;;;;6.90;100.00;95963.25;4954561;29;20625;-76
2023/01/08 07:53:17;;;;;;;5.10;4.90;;;;;;;6.85;100.00;95962.34;4954625;29;20296;-76
2023/01/08 07:55:43;;;;;;;5.80;5.50;;;;;;;6.96;100.00;95980.59;4954589;28;20221;-75
2023/01/08 07:58:13;;;;;;;6.47;6.07;;;;;;;6.97;100.00;95971.72;4953883;29;20641;-76
2023/01/08 08:00:39;;;;;;;7.13;6.70;;;;;;;6.91;100.00;95964.81;4953775;29;20657;-76
2023/01/08 08:03:06;;;;;;;5.87;5.57;;;;;;;6.92;100.00;95969.00;4952474;29;20257;-76
2023/01/08 08:05:33;;;;;;;6.07;5.67;;;;;;;6.89;100.00;95964.25;4954550;29;20197;-76
2023/01/08 08:07:59;;;;;;;7.13;6.57;;;;;;;6.91;100.00;95967.41;4937103;29;20181;-76
2023/01/08 08:10:25;;;;;;;5.87;5.47;;;;;;;6.90;100.00;95959.84;4954790;29;20252;-77
2023/01/08 08:12:50;;;;;;;5.90;5.50;;;;;;;6.95;100.00;95962.56;4954335;29;20566;-74
2023/01/08 08:15:16;;;;;;;5.90;5.60;;;;;;;6.83;100.00;95962.53;4954679;29;20188;-74
2023/01/08 08:17:48;;;;;;;17.67;16.77;;;;;;;6.90;100.00;95967.66;4936635;29;20200;-75
2023/01/08 08:20:14;;;;;;;16.93;15.97;;;;;;;6.91;100.00;95961.44;4937347;29;20186;-75
2023/01/08 08:22:39;;;;;;;17.83;16.77;;;;;;;6.87;100.00;95966.28;4954453;29;20189;-76
2023/01/08 08:25:05;;;;;;;20.27;19.17;;;;;;;6.94;100.00;95961.78;4961642;28;20192;-76
2023/01/08 08:27:31;;;;;;;5.43;5.13;;;;;;;6.92;100.00;95963.00;4961733;28;20193;-75
2023/01/08 08:29:56;;;;;;;5.90;5.60;;;;;;;7.04;100.00;95950.78;4937362;29;20190;-76
2023/01/08 08:32:21;;;;;;;5.47;5.27;;;;;;;7.04;100.00;95946.38;4953630;29;20213;-76
2023/01/08 08:34:49;;;;;;;5.47;5.17;;;;;;;6.97;100.00;95944.88;4954363;29;20294;-77
2023/01/08 08:37:15;;;;;;;5.40;5.20;;;;;;;6.97;100.00;95939.69;4953965;29;20493;-76
2023/01/08 08:39:40;;;;;;;5.53;5.03;;;;;;;6.92;100.00;95948.16;4954279;28;20284;-75
2023/01/08 08:42:05;;;;;;;5.13;4.83;;;;;;;6.95;100.00;95939.91;4957732;29;20189;-75
2023/01/08 08:44:31;;;;;;;5.67;5.30;;;;;;;6.99;100.00;95941.06;4958331;29;20188;-76
2023/01/08 08:46:57;;;;;;;5.30;5.00;;;;;;;7.00;100.00;95941.84;4940949;29;20213;-76
2023/01/08 08:49:23;;;;;;;5.90;5.60;;;;;;;7.03;100.00;95941.38;4960728;29;20283;-77
2023/01/08 08:51:48;;;;;;;5.73;5.33;;;;;;;7.05;100.00;95928.94;4957106;29;20707;-77
2023/01/08 08:54:13;;;;;;;7.03;6.47;;;;;;;7.06;100.00;95931.34;4957690;29;20533;-77
2023/01/08 08:56:39;;;;;;;6.37;5.97;;;;;;;7.10;100.00;95926.44;4975015;28;20225;-77
2023/01/08 08:59:04;;;;;;;5.80;5.40;;;;;;;7.09;100.00;95932.66;4959606;28;20580;-77
2023/01/08 09:01:30;;;;;;;6.87;6.47;;;;;;;7.09;100.00;95927.47;4975570;28;20703;-78
2023/01/08 09:03:56;;;;;;;6.07;5.77;;;;;;;7.10;100.00;95927.25;4976969;28;20272;-78
2023/01/08 09:06:22;;;;;;;5.23;5.00;;;;;;;7.12;100.00;95926.22;4976765;28;20188;-78
2023/01/08 09:08:48;;;;;;;5.00;4.70;;;;;;;7.18;100.00;95922.72;4977177;28;20189;-77
2023/01/08 09:11:13;;;;;;;4.40;4.10;;;;;;;7.10;100.00;95923.84;4976481;28;20267;-77
2023/01/08 09:13:38;;;;;;;4.93;4.60;;;;;;;7.13;100.00;95915.59;4976736;28;20579;-77
2023/01/08 09:16:04;;;;;;;4.57;4.17;;;;;;;7.18;100.00;95917.50;4976123;28;20184;-79
2023/01/08 09:18:29;;;;;;;5.67;5.37;;;;;;;7.22;100.00;95922.03;4974798;28;20268;-79
2023/01/08 09:20:54;;;;;;;7.93;7.53;;;;;;;7.22;100.00;95922.03;4975072;28;20180;-79
2023/01/08 09:23:20;;;;;;;6.20;5.77;;;;;;;7.29;100.00;95921.94;4974933;28;20176;-80
2023/01/08 09:25:45;;;;;;;9.47;5.80;;;;;;;7.32;100.00;95916.25;4958565;28;20598;-80
2023/01/08 09:28:11;;;;;;;6.77;6.37;;;;;;;7.39;100.00;95917.75;4960850;28;20181;-79
2023/01/08 09:30:38;;;;;;;6.63;6.30;;;;;;;7.45;100.00;95919.44;4976760;28;20185;-81
2023/01/08 09:33:04;;;;;;;7.23;6.80;;;;;;;7.53;100.00;95918.28;4976480;28;20220;-77
2023/01/08 09:35:32;;;;;;;8.10;7.70;;;;;;;7.56;100.00;95917.84;4975926;28;20191;-78
2023/01/08 09:37:58;;;;;;;9.20;8.60;;;;;;;7.55;100.00;95923.28;4976545;28;20189;-78
2023/01/08 09:40:46;;;;;;;7.30;6.90;;;;;;;7.68;100.00;95917.81;4975471;28;20567;-79
2023/01/08 09:43:18;;;;;;;4.50;4.30;;;;;;;7.75;100.00;95923.69;4961678;28;20252;-79
2023/01/08 09:45:50;;;;;;;5.60;5.33;;;;;;;7.72;100.00;95919.75;4956963;29;20178;-79
2023/01/08 09:48:17;;;;;;;7.60;7.20;;;;;;;7.67;100.00;95930.06;4956757;29;20643;-78
2023/01/08 09:50:42;;;;;;;7.37;6.97;;;;;;;7.58;100.00;95922.84;4972083;28;20658;-79
2023/01/08 09:53:13;;;;;;;9.47;8.97;;;;;;;7.56;100.00;95922.25;4974204;28;20317;-80
2023/01/08 09:55:39;;;;;;;7.57;7.20;;;;;;;7.56;100.00;95915.22;4958527;28;20279;-80
2023/01/08 09:58:21;;;;;;;6.10;5.80;;;;;;;7.65;100.00;95920.88;4976032;28;20275;-79
2023/01/08 10:00:47;;;;;;;7.63;7.07;;;;;;;7.60;100.00;95916.34;4973561;28;20219;-80
2023/01/08 10:03:12;;;;;;;7.47;7.07;;;;;;;7.71;100.00;95938.22;4975475;28;20240;-79
2023/01/08 10:05:40;;;;;;;7.30;6.90;;;;;;;7.77;100.00;95934.69;4958571;28;20195;-81
2023/01/08 10:08:10;;;;;;;5.47;5.27;;;;;;;7.85;100.00;95929.13;4975758;28;20221;-80
2023/01/08 10:10:37;;;;;;;5.63;5.40;;;;;;;7.81;100.00;95938.41;4975944;28;20209;-80
2023/01/08 10:13:03;;;;;;;3.40;3.30;;;;;;;7.87;100.00;95940.13;4975704;28;20281;-80
2023/01/08 10:15:28;;;;;;;5.20;5.00;;;;;;;7.96;100.00;95930.13;4976134;28;20204;-80
2023/01/08 10:17:57;;;;;;;6.80;6.47;;;;;;;8.02;100.00;95934.44;4975888;28;20229;-80
2023/01/08 10:20:24;;;;;;;10.93;10.43;;;;;;;7.99;100.00;95927.84;4975230;28;20688;-80
2023/01/08 10:22:54;;;;;;;7.87;7.47;;;;;;;7.99;100.00;95927.84;4975679;28;20188;-80
2023/01/08 10:25:22;;;;;;;6.33;6.03;;;;;;;7.98;100.00;95922.84;4974774;28;20185;-80
2023/01/08 10:27:52;;;;;;;5.63;5.33;;;;;;;8.15;100.00;95928.94;4969641;28;20592;-80
2023/01/08 10:30:21;;;;;;;4.93;4.73;;;;;;;8.23;100.00;95926.75;4975238;28;20185;-80
2023/01/08 10:32:54;;;;;;;5.10;4.90;;;;;;;8.25;100.00;95922.06;4972703;28;20205;-80
2023/01/08 10:35:31;;;;;;;5.30;4.87;;;;;;;8.15;100.00;95921.09;4966986;28;20191;-79
2023/01/08 10:37:57;;;;;;;3.60;3.50;;;;;;;8.10;100.00;95921.78;4975086;28;20180;-80
2023/01/08 10:40:47;;;;;;;3.50;3.30;;;;;;;8.23;100.00;95910.31;4964649;28;20197;-80
2023/01/08 10:43:17;;;;;;;3.90;3.70;;;;;;;8.20;100.00;95908.94;4954518;28;20711;-79
2023/01/08 10:45:53;;;;;;;4.17;3.97;;;;;;;8.25;100.00;95897.78;4994762;28;20334;-78
2023/01/08 10:48:19;;;;;;;3.47;3.27;;;;;;;8.34;100.00;95897.22;4977341;28;20179;-79
2023/01/08 10:50:45;;;;;;;3.33;3.23;;;;;;;8.47;100.00;95890.91;4987971;28;20191;-81
2023/01/08 10:53:23;;;;;;;3.77;3.57;;;;;;;8.36;100.00;95896.22;4974585;28;20651;-79
2023/01/08 10:56:01;;;;;;;3.07;2.97;;;;;;;8.39;100.00;95895.72;4974809;28;20762;-81
2023/01/08 10:58:28;;;;;;;3.20;3.10;;;;;;;8.53;100.00;95887.34;4975137;28;20184;-80
2023/01/08 11:00:54;;;;;;;3.43;3.23;;;;;;;8.49;100.00;95890.69;4972274;28;20201;-78
2023/01/08 11:03:29;;;;;;;3.23;3.13;;;;;;;8.55;100.00;95895.75;4974123;28;20248;-79
2023/01/08 11:05:55;;;;;;;4.00;3.80;;;;;;;8.70;100.00;95879.53;4957857;28;20184;-80
2023/01/08 11:08:21;;;;;;;3.87;3.67;;;;;;;8.70;100.00;95877.72;4957900;28;20244;-80
2023/01/08 11:10:55;;;;;;;3.87;3.67;;;;;;;8.82;100.00;95882.88;4975358;28;20192;-80
2023/01/08 11:13:21;;;;;;;3.63;3.43;;;;;;;8.81;100.00;95881.28;4975069;28;20255;-80
2023/01/08 11:15:58;;;;;;;3.30;3.20;;;;;;;8.86;100.00;95888.44;4975018;28;20181;-80
2023/01/08 11:18:25;;;;;;;3.33;3.23;;;;;;;8.88;100.00;95886.38;4974696;28;20489;-80
2023/01/08 11:20:53;;;;;;;3.77;3.67;;;;;;;8.92;100.00;95877.00;4976294;28;20545;-81
2023/01/08 11:23:18;;;;;;;3.43;3.33;;;;;;;8.98;100.00;95876.84;4993777;28;20275;-80
2023/01/08 11:25:49;;;;;;;3.33;3.13;;;;;;;9.03;100.00;95868.28;4977207;28;20295;-81
2023/01/08 11:28:24;;;;;;;3.60;3.50;;;;;;;9.07;100.00;95869.41;4994281;28;20165;-81
2023/01/08 11:30:56;;;;;;;3.70;3.60;;;;;;;9.01;100.00;95870.38;4994563;28;20172;-80
2023/01/08 11:33:27;;;;;;;4.57;4.37;;;;;;;9.13;100.00;95858.81;4994240;28;20659;-80
2023/01/08 11:35:59;;;;;;;3.43;3.30;;;;;;;9.12;100.00;95849.38;4976296;28;20207;-80